Time;durP1;ratioP1;P1;durP2;ratioP2;P2;SDS_P1;SDS_P2;PMS_P1;PMS_P2;Temp;Humidity;BMP_temperature;BMP_pressure;BME280_temperature;BME280_humidity;BME280_pressure;Samples;Min_cycle;Max_cycle;Signal;HPM_P1;HPM_P2
2022/10/30 00:02:35;;;;;;;10.50;5.40;;;18.50;74.70;;;;;;10494420;28;20078;-62
2022/10/30 00:07:36;;;;;;;7.30;6.45;;;18.60;74.90;;;;;;10484545;28;20108;-62
2022/10/30 00:12:36;;;;;;;11.15;7.10;;;18.60;74.90;;;;;;10473581;28;20075;-62
2022/10/30 00:17:37;;;;;;;8.73;5.95;;;18.60;74.90;;;;;;10490668;28;20075;-61
2022/10/30 00:22:37;;;;;;;7.18;6.22;;;18.60;74.90;;;;;;10475682;28;20514;-62
2022/10/30 00:27:38;;;;;;;8.57;6.65;;;18.50;74.70;;;;;;10480289;28;20131;-62
2022/10/30 00:32:39;;;;;;;7.75;6.20;;;18.50;74.80;;;;;;10474767;28;20060;-61
2022/10/30 00:37:39;;;;;;;7.80;5.60;;;18.50;74.80;;;;;;10460366;28;20155;-62
2022/10/30 00:42:40;;;;;;;9.38;6.60;;;18.50;74.70;;;;;;10474965;28;20479;-62
2022/10/30 00:47:55;;;;;;;9.73;7.03;;;18.50;74.70;;;;;;10458222;28;20021;-62
2022/10/30 00:53:14;;;;;;;8.40;6.55;;;18.50;74.70;;;;;;10470677;28;20029;-63
2022/10/30 00:58:19;;;;;;;7.82;6.45;;;18.50;74.70;;;;;;10476668;28;20814;-62
2022/10/30 01:03:21;;;;;;;8.07;6.05;;;18.50;74.70;;;;;;10474798;28;20017;-62
2022/10/30 01:08:22;;;;;;;10.95;6.72;;;18.50;74.70;;;;;;10482933;28;20025;-62
2022/10/30 01:13:24;;;;;;;9.90;6.30;;;18.50;74.70;;;;;;10429168;28;20029;-62
2022/10/30 01:18:45;;;;;;;8.18;6.68;;;18.50;74.70;;;;;;10496156;28;20047;-63
2022/10/30 01:24:07;;;;;;;5.85;5.25;;;18.50;74.60;;;;;;10491160;28;20124;-62
2022/10/30 01:29:34;;;;;;;8.13;6.78;;;18.50;74.60;;;;;;10464679;28;20127;-61
2022/10/30 01:34:56;;;;;;;10.77;6.57;;;18.40;74.60;;;;;;10464672;28;20041;-62
2022/10/30 01:40:07;;;;;;;6.75;5.82;;;18.40;74.60;;;;;;10449571;28;20372;-63
2022/10/30 01:45:10;;;;;;;9.25;5.75;;;18.40;74.60;;;;;;10463462;28;20568;-62
2022/10/30 01:50:24;;;;;;;6.28;5.40;;;18.40;74.60;;;;;;10464213;28;20041;-63
2022/10/30 01:55:53;;;;;;;9.60;6.00;;;18.40;74.60;;;;;;10448532;28;20013;-62
2022/10/30 02:00:57;;;;;;;9.77;6.77;;;18.40;74.60;;;;;;10465880;28;20028;-62
2022/10/30 02:05:59;;;;;;;6.93;5.65;;;18.40;74.50;;;;;;10476554;28;20024;-62
2022/10/30 02:11:00;;;;;;;11.60;6.38;;;18.40;74.50;;;;;;10448267;28;20037;-62
2022/10/30 02:16:00;;;;;;;10.18;5.80;;;18.30;74.50;;;;;;10463518;28;20070;-62
2022/10/30 02:21:01;;;;;;;7.20;6.07;;;18.40;74.50;;;;;;10489524;28;20420;-62
2022/10/30 02:26:02;;;;;;;6.43;5.82;;;18.40;74.50;;;;;;10501237;28;20017;-62
2022/10/30 02:31:03;;;;;;;9.55;6.22;;;18.40;74.50;;;;;;10462140;28;20064;-62
2022/10/30 02:36:04;;;;;;;8.25;6.53;;;18.40;74.50;;;;;;10487565;28;20082;-62
2022/10/30 02:41:05;;;;;;;6.75;5.43;;;18.40;74.50;;;;;;10487059;28;20472;-62
2022/10/30 02:46:06;;;;;;;7.07;5.43;;;18.40;74.50;;;;;;10487387;28;20097;-63
2022/10/30 02:51:06;;;;;;;6.20;5.10;;;18.40;74.50;;;;;;10482310;28;20451;-63
2022/10/30 02:56:10;;;;;;;9.05;6.30;;;18.40;74.50;;;;;;10475625;28;20111;-62
2022/10/30 03:01:17;;;;;;;6.10;5.10;;;18.40;74.40;;;;;;10486613;28;20051;-61
2022/10/30 03:06:18;;;;;;;7.70;5.32;;;18.40;74.40;;;;;;10480369;28;20459;-61
2022/10/30 03:11:19;;;;;;;7.25;5.32;;;18.30;74.40;;;;;;10469835;28;20062;-61
2022/10/30 03:16:24;;;;;;;6.95;5.15;;;18.30;74.40;;;;;;10456932;28;20082;-66
2022/10/30 03:21:27;;;;;;;8.57;5.82;;;18.30;74.40;;;;;;10476670;28;20029;-63
2022/10/30 03:26:27;;;;;;;6.78;5.75;;;18.30;74.40;;;;;;10478041;28;20052;-62
2022/10/30 03:31:30;;;;;;;6.70;6.00;;;18.30;74.30;;;;;;10460906;28;20037;-63
2022/10/30 03:36:31;;;;;;;6.25;5.47;;;18.30;74.30;;;;;;10469434;28;20388;-62
2022/10/30 03:41:32;;;;;;;9.38;5.72;;;18.30;74.30;;;;;;10477418;28;20112;-62
2022/10/30 03:46:32;;;;;;;10.00;5.95;;;18.30;74.30;;;;;;10495467;28;20016;-62
2022/10/30 03:51:33;;;;;;;5.93;4.97;;;18.30;74.30;;;;;;10490615;28;20541;-61
2022/10/30 03:56:34;;;;;;;7.40;5.45;;;18.30;74.30;;;;;;10493834;28;20162;-63
2022/10/30 04:01:34;;;;;;;7.65;5.28;;;18.30;74.30;;;;;;10464623;28;20524;-62
2022/10/30 04:06:35;;;;;;;6.90;5.80;;;18.20;74.20;;;;;;10472771;28;20103;-62
2022/10/30 04:11:36;;;;;;;7.30;5.93;;;18.30;74.30;;;;;;10462118;28;20116;-63
2022/10/30 04:16:36;;;;;;;6.47;5.07;;;18.20;74.20;;;;;;10464459;28;20024;-62
2022/10/30 04:21:37;;;;;;;8.25;5.63;;;18.20;74.10;;;;;;10470773;28;20056;-62
2022/10/30 04:26:38;;;;;;;8.15;6.15;;;18.20;74.10;;;;;;10481706;28;20076;-62
2022/10/30 04:31:38;;;;;;;9.30;5.47;;;18.20;74.10;;;;;;10472741;28;20135;-62
2022/10/30 04:36:39;;;;;;;7.43;5.13;;;18.30;74.10;;;;;;10491106;28;20099;-63
2022/10/30 04:41:40;;;;;;;7.43;5.47;;;18.20;74.10;;;;;;10466878;28;20092;-63
2022/10/30 04:46:40;;;;;;;6.18;4.72;;;18.20;74.00;;;;;;10470217;28;20151;-62
2022/10/30 04:51:41;;;;;;;5.85;4.65;;;18.20;74.00;;;;;;10474361;28;20078;-62
2022/10/30 04:56:42;;;;;;;7.57;5.10;;;18.20;74.00;;;;;;10490190;28;20021;-63
2022/10/30 05:01:42;;;;;;;7.43;5.68;;;18.20;74.00;;;;;;10477167;28;20104;-61
2022/10/30 05:06:43;;;;;;;8.45;5.03;;;18.20;74.10;;;;;;10486879;28;20126;-61
2022/10/30 05:11:43;;;;;;;10.55;5.85;;;18.20;74.10;;;;;;10478571;28;20112;-56
2022/10/30 05:16:44;;;;;;;19.30;17.50;;;18.20;73.70;;;;;;10483107;28;20105;-65
2022/10/30 05:21:45;;;;;;;12.18;9.10;;;19.40;70.60;;;;;;10465207;28;20068;-64
2022/10/30 05:26:46;;;;;;;12.18;9.32;;;20.10;65.10;;;;;;10472267;28;20624;-65
2022/10/30 05:31:46;;;;;;;9.13;7.75;;;20.40;64.40;;;;;;10468208;28;20040;-64
2022/10/30 05:36:47;;;;;;;9.88;8.88;;;20.40;64.80;;;;;;10448350;28;20027;-64
2022/10/30 05:41:47;;;;;;;9.05;7.75;;;20.40;65.50;;;;;;10463781;28;20060;-64
2022/10/30 05:46:48;;;;;;;13.45;8.52;;;20.50;65.60;;;;;;10472376;28;20111;-61
2022/10/30 05:51:49;;;;;;;21.60;12.32;;;20.40;65.50;;;;;;10455343;28;20206;-60
2022/10/30 05:56:49;;;;;;;29.40;15.65;;;20.30;66.70;;;;;;10485573;28;20108;-63
2022/10/30 06:01:50;;;;;;;24.42;13.25;;;20.20;67.60;;;;;;10487912;28;20483;-61
2022/10/30 06:06:51;;;;;;;29.50;13.52;;;20.30;68.00;;;;;;10483082;28;20116;-63
2022/10/30 06:11:52;;;;;;;27.30;13.35;;;20.10;69.10;;;;;;10468332;28;20115;-63
2022/10/30 06:16:53;;;;;;;29.63;14.00;;;20.10;69.70;;;;;;10457679;28;20040;-65
2022/10/30 06:21:54;;;;;;;32.03;12.00;;;20.30;68.70;;;;;;10461563;28;20441;-64
2022/10/30 06:26:54;;;;;;;43.78;14.23;;;20.50;67.30;;;;;;10441079;28;20128;-65
2022/10/30 06:31:55;;;;;;;31.55;12.75;;;20.70;66.10;;;;;;10479930;28;20124;-64
2022/10/30 06:36:55;;;;;;;28.27;13.00;;;20.50;67.70;;;;;;10467410;28;20100;-66
2022/10/30 06:41:56;;;;;;;41.63;12.82;;;20.50;67.70;;;;;;10474302;28;20078;-65
2022/10/30 06:46:57;;;;;;;28.15;11.82;;;20.70;66.20;;;;;;10464323;28;20519;-65
2022/10/30 06:51:57;;;;;;;37.30;12.40;;;20.70;65.60;;;;;;10480185;28;20128;-66
2022/10/30 06:56:58;;;;;;;25.02;11.27;;;20.70;65.50;;;;;;10471360;28;20106;-67
2022/10/30 07:01:59;;;;;;;31.10;12.27;;;20.70;65.60;;;;;;10458158;28;20475;-67
2022/10/30 07:06:59;;;;;;;57.13;14.25;;;20.70;65.50;;;;;;10467141;28;20075;-69
2022/10/30 07:12:00;;;;;;;35.28;10.70;;;20.70;66.20;;;;;;10483670;28;20113;-66
2022/10/30 07:17:01;;;;;;;44.22;12.20;;;20.70;65.90;;;;;;10446550;28;20507;-66
2022/10/30 07:22:02;;;;;;;33.53;11.70;;;20.70;65.30;;;;;;10465229;28;20704;-66
2022/10/30 07:27:02;;;;;;;35.53;12.10;;;20.70;63.50;;;;;;10474447;28;20584;-66
2022/10/30 07:32:04;;;;;;;24.98;10.00;;;20.80;62.80;;;;;;10457964;28;20578;-66
2022/10/30 07:37:04;;;;;;;24.98;9.52;;;20.80;62.10;;;;;;10443051;28;20021;-66
2022/10/30 07:42:05;;;;;;;25.65;9.18;;;20.80;61.60;;;;;;10478791;28;20109;-66
2022/10/30 07:47:06;;;;;;;19.25;9.07;;;20.80;61.00;;;;;;10482291;28;20547;-66
2022/10/30 07:52:06;;;;;;;22.55;8.23;;;20.80;60.60;;;;;;10465882;28;20120;-66
2022/10/30 07:57:07;;;;;;;13.57;8.07;;;20.80;60.10;;;;;;10439879;28;20035;-66
2022/10/30 08:02:09;;;;;;;14.93;7.93;;;20.80;59.70;;;;;;10467938;28;20123;-66
2022/10/30 08:07:10;;;;;;;15.73;7.03;;;20.80;59.60;;;;;;10487948;28;20017;-66
2022/10/30 08:12:10;;;;;;;18.77;8.32;;;20.80;59.20;;;;;;10492990;28;20452;-66
2022/10/30 08:17:11;;;;;;;15.40;7.20;;;20.90;58.80;;;;;;10474967;28;20104;-66
2022/10/30 08:22:12;;;;;;;19.27;8.68;;;20.90;58.60;;;;;;10492611;28;20107;-66
2022/10/30 08:27:13;;;;;;;17.08;7.75;;;20.90;58.30;;;;;;10483262;28;20048;-65
2022/10/30 08:32:14;;;;;;;14.82;6.18;;;21.00;58.20;;;;;;10466417;28;20041;-66
2022/10/30 08:37:16;;;;;;;14.43;6.50;;;20.90;57.90;;;;;;10464736;28;20136;-67
2022/10/30 08:42:16;;;;;;;15.15;6.53;;;21.00;57.70;;;;;;10490037;28;20025;-66
2022/10/30 08:47:17;;;;;;;15.98;7.03;;;21.00;57.80;;;;;;10448232;28;20130;-68
2022/10/30 08:52:18;;;;;;;13.50;6.63;;;21.00;57.60;;;;;;10474032;28;20519;-63
2022/10/30 08:57:18;;;;;;;13.00;7.65;;;21.00;57.90;;;;;;10485086;28;20024;-66
2022/10/30 09:02:19;;;;;;;18.80;6.57;;;21.10;58.30;;;;;;10452877;28;20025;-66
2022/10/30 09:07:20;;;;;;;28.60;7.78;;;21.10;57.60;;;;;;10465062;28;20539;-65
2022/10/30 09:12:20;;;;;;;15.65;7.38;;;21.20;57.70;;;;;;10455947;28;20516;-65
2022/10/30 09:17:21;;;;;;;16.25;8.45;;;21.20;57.70;;;;;;10449044;28;20056;-66
2022/10/30 09:22:22;;;;;;;18.25;7.13;;;21.20;57.20;;;;;;10468746;28;20142;-65
2022/10/30 09:27:23;;;;;;;11.40;7.25;;;21.20;57.00;;;;;;10486319;28;20040;-66
2022/10/30 09:32:23;;;;;;;12.95;6.70;;;21.20;56.80;;;;;;10453928;28;20087;-65
2022/10/30 09:37:25;;;;;;;12.13;6.80;;;21.30;56.70;;;;;;10474019;28;20024;-65
2022/10/30 09:42:48;;;;;;;14.80;6.63;;;21.30;56.40;;;;;;10474723;28;20023;-65
2022/10/30 09:48:30;;;;;;;15.07;7.00;;;21.30;56.50;;;;;;10485169;28;20172;-68
2022/10/30 09:54:00;;;;;;;15.93;8.57;;;21.40;56.60;;;;;;10468715;28;20052;-66
2022/10/30 09:59:08;;;;;;;;;;;21.40;56.50;;;;;;10449458;28;20517;-66
2022/10/30 10:04:35;;;;;;;11.98;6.00;;;21.80;56.20;;;;;;10452326;28;20426;-67
2022/10/30 10:09:38;;;;;;;14.05;7.80;;;21.60;56.00;;;;;;10471259;28;20068;-66
2022/10/30 10:14:46;;;;;;;12.40;5.75;;;21.50;55.80;;;;;;10471745;28;20256;-66
2022/10/30 10:20:01;;;;;;;13.18;6.75;;;21.60;55.80;;;;;;10481205;28;20028;-66
2022/10/30 10:25:07;;;;;;;9.35;6.28;;;21.60;56.00;;;;;;10484802;28;20032;-65
2022/10/30 10:30:20;;;;;;;12.05;6.35;;;21.60;55.60;;;;;;10426030;28;20037;-66
2022/10/30 10:35:55;;;;;;;17.70;7.18;;;21.60;55.60;;;;;;10402566;28;20022;-65
2022/10/30 10:41:17;;;;;;;14.30;5.68;;;21.60;55.70;;;;;;10403756;28;20092;-66
2022/10/30 10:47:06;;;;;;;9.10;5.22;;;21.60;55.40;;;;;;10404572;28;20030;-65
2022/10/30 10:52:39;;;;;;;20.45;5.45;;;21.70;55.30;;;;;;10398219;28;20076;-63
2022/10/30 10:57:42;;;;;;;13.95;6.95;;;21.70;55.50;;;;;;10394959;28;20505;-62
2022/10/30 11:03:23;;;;;;;16.25;7.85;;;21.70;55.50;;;;;;10402163;28;20080;-61
2022/10/30 11:08:34;;;;;;;19.73;7.50;;;21.70;56.00;;;;;;10419302;28;20105;-62
2022/10/30 11:13:41;;;;;;;12.75;7.50;;;21.80;56.00;;;;;;10403120;28;20033;-61
2022/10/30 11:18:45;;;;;;;17.50;7.55;;;21.80;55.90;;;;;;10402986;28;20026;-64
2022/10/30 11:23:48;;;;;;;16.58;8.13;;;21.80;56.10;;;;;;10406196;28;20104;-62
2022/10/30 11:29:13;;;;;;;35.13;11.32;;;21.80;56.20;;;;;;10431223;28;20041;-63
2022/10/30 11:34:36;;;;;;;26.42;9.57;;;21.80;57.00;;;;;;10484009;28;20037;-62
2022/10/30 11:39:37;;;;;;;24.73;9.35;;;21.80;58.00;;;;;;10479287;28;20512;-62
2022/10/30 11:44:50;;;;;;;29.77;9.00;;;22.00;57.20;;;;;;10481165;28;20060;-63
2022/10/30 11:50:05;;;;;;;21.85;8.45;;;22.00;56.60;;;;;;10469235;28;20541;-63
2022/10/30 11:55:38;;;;;;;23.45;8.85;;;22.00;56.50;;;;;;10493090;28;20029;-62
2022/10/30 12:00:44;;;;;;;18.55;8.23;;;22.00;56.70;;;;;;10462997;28;20096;-63
2022/10/30 12:05:44;;;;;;;17.00;7.55;;;22.00;55.60;;;;;;10480975;28;20719;-63
2022/10/30 12:10:51;;;;;;;13.85;7.90;;;22.00;55.50;;;;;;10493838;28;20043;-62
2022/10/30 12:16:17;;;;;;;13.63;7.65;;;22.00;55.30;;;;;;10483225;28;20024;-63
2022/10/30 12:21:19;;;;;;;11.85;7.13;;;22.00;55.40;;;;;;10491786;28;20024;-62
2022/10/30 12:26:22;;;;;;;14.88;7.80;;;22.00;55.00;;;;;;10476661;28;20045;-63
2022/10/30 12:31:33;;;;;;;21.42;8.82;;;21.90;54.90;;;;;;10491666;28;20460;-63
2022/10/30 12:36:44;;;;;;;11.23;6.20;;;21.90;54.70;;;;;;10486044;28;20041;-63
2022/10/30 12:42:02;;;;;;;14.00;5.65;;;22.00;54.70;;;;;;10485368;28;20020;-63
2022/10/30 12:47:32;;;;;;;8.02;5.55;;;21.90;54.50;;;;;;10475531;28;20028;-63
2022/10/30 12:52:46;;;;;;;10.90;5.72;;;21.90;54.40;;;;;;10448551;28;20032;-62
2022/10/30 12:58:14;;;;;;;11.18;5.72;;;21.90;54.20;;;;;;10483278;28;20460;-62
2022/10/30 13:03:42;;;;;;;12.25;6.90;;;21.90;54.10;;;;;;10447724;28;20040;-63
2022/10/30 13:09:24;;;;;;;10.88;5.93;;;21.80;54.30;;;;;;10435169;28;20035;-63
2022/10/30 13:14:41;;;;;;;9.98;5.40;;;21.90;54.20;;;;;;10437059;28;20088;-63
2022/10/30 13:19:45;;;;;;;9.05;5.60;;;21.80;53.60;;;;;;10461453;28;20114;-63
2022/10/30 13:25:16;;;;;;;8.57;5.00;;;21.80;53.50;;;;;;10489630;28;20033;-63
2022/10/30 13:30:24;;;;;;;10.02;5.53;;;21.80;53.90;;;;;;10455141;28;20076;-63
2022/10/30 13:36:03;;;;;;;10.35;5.55;;;21.80;53.40;;;;;;10489159;28;20032;-63
2022/10/30 13:41:23;;;;;;;11.93;5.70;;;21.90;53.70;;;;;;10488161;28;20028;-62
2022/10/30 13:47:20;;;;;;;8.82;5.78;;;21.80;53.60;;;;;;10468345;28;20028;-63
2022/10/30 13:52:22;;;;;;;9.80;5.45;;;21.80;54.10;;;;;;10343546;28;20029;-62
2022/10/30 13:57:56;;;;;;;12.68;5.60;;;21.80;54.40;;;;;;10453655;28;20059;-62
2022/10/30 14:03:20;;;;;;;9.15;6.38;;;21.80;54.20;;;;;;10475576;28;20129;-62
2022/10/30 14:08:35;;;;;;;11.77;6.13;;;21.80;54.10;;;;;;10467023;28;20099;-64
2022/10/30 14:14:27;;;;;;;10.85;5.53;;;21.80;54.30;;;;;;10469395;28;20040;-63
2022/10/30 14:19:27;;;;;;;12.48;6.20;;;21.80;54.30;;;;;;10467301;28;20039;-62
2022/10/30 14:24:31;;;;;;;12.60;6.53;;;21.80;53.90;;;;;;10483735;28;20044;-63
2022/10/30 14:29:32;;;;;;;9.35;5.82;;;21.80;53.60;;;;;;10484851;28;20519;-62
2022/10/30 14:34:50;;;;;;;10.27;4.75;;;21.80;53.40;;;;;;10487773;28;20040;-62
2022/10/30 14:39:52;;;;;;;8.40;6.78;;;21.70;53.50;;;;;;10449402;28;20021;-62
2022/10/30 14:45:48;;;;;;;10.55;5.90;;;21.80;53.20;;;;;;10468596;28;20021;-62
2022/10/30 14:51:18;;;;;;;11.48;6.20;;;21.70;53.30;;;;;;10487580;28;20071;-63
2022/10/30 14:56:27;;;;;;;;;;;21.80;53.20;;;;;;10468345;28;20107;-65
2022/10/30 15:01:51;;;;;;;16.83;6.35;;;22.10;53.20;;;;;;10452728;28;20352;-65
2022/10/30 15:07:34;;;;;;;9.40;5.28;;;21.80;53.10;;;;;;10453741;28;20108;-65
2022/10/30 15:12:56;;;;;;;12.40;4.90;;;21.80;53.30;;;;;;10470334;28;20021;-65
2022/10/30 15:18:19;;;;;;;11.38;5.65;;;21.70;53.20;;;;;;10478615;28;20124;-65
2022/10/30 15:23:32;;;;;;;7.30;5.10;;;21.70;53.80;;;;;;10441163;28;20037;-65
2022/10/30 15:28:34;;;;;;;9.50;5.80;;;21.80;53.00;;;;;;10468931;28;20103;-64
2022/10/30 15:33:36;;;;;;;9.30;5.00;;;21.70;53.30;;;;;;10468560;28;20033;-64
2022/10/30 15:38:37;;;;;;;10.10;5.93;;;21.80;52.90;;;;;;10468236;28;20646;-64
2022/10/30 15:43:41;;;;;;;11.23;5.72;;;21.80;52.70;;;;;;10444581;28;20500;-63
2022/10/30 15:48:45;;;;;;;12.82;6.68;;;21.80;52.90;;;;;;10455354;28;20078;-65
2022/10/30 15:53:55;;;;;;;10.65;5.72;;;21.80;53.00;;;;;;10465718;28;20120;-62
2022/10/30 15:59:13;;;;;;;14.73;6.13;;;21.80;53.10;;;;;;10456953;28;20028;-63
2022/10/30 16:04:20;;;;;;;13.88;6.43;;;21.70;53.30;;;;;;10465919;28;20028;-62
2022/10/30 16:09:23;;;;;;;12.85;6.20;;;21.70;53.50;;;;;;10462331;28;20025;-62
2022/10/30 16:14:29;;;;;;;30.30;7.63;;;21.70;53.50;;;;;;10466431;28;20635;-62
2022/10/30 16:19:40;;;;;;;14.95;7.50;;;21.70;54.10;;;;;;10428170;28;20024;-62
2022/10/30 16:24:41;;;;;;;17.45;8.02;;;21.30;57.40;;;;;;10462437;28;20054;-63
2022/10/30 16:29:43;;;;;;;20.95;7.85;;;21.30;58.70;;;;;;10462523;28;20045;-64
2022/10/30 16:34:44;;;;;;;26.38;9.45;;;21.10;60.10;;;;;;10457311;28;20021;-64
2022/10/30 16:39:49;;;;;;;25.65;13.15;;;21.30;60.10;;;;;;10489805;28;20074;-64
2022/10/30 16:44:51;;;;;;;32.70;12.40;;;21.40;60.20;;;;;;10471571;28;20046;-66
2022/10/30 16:49:56;;;;;;;27.60;10.65;;;21.40;63.90;;;;;;10463004;28;20016;-63
2022/10/30 16:55:05;;;;;;;32.40;13.90;;;21.50;64.80;;;;;;10466270;28;20037;-64
2022/10/30 17:00:16;;;;;;;30.13;12.55;;;21.60;65.00;;;;;;10460737;28;20017;-62
2022/10/30 17:05:33;;;;;;;28.77;13.95;;;21.70;65.10;;;;;;10473123;28;20017;-63
2022/10/30 17:10:58;;;;;;;25.42;13.20;;;21.80;66.30;;;;;;10490281;28;20036;-64
2022/10/30 17:16:16;;;;;;;34.60;16.73;;;21.80;66.70;;;;;;10490274;28;20061;-61
2022/10/30 17:21:22;;;;;;;34.95;14.57;;;21.80;67.40;;;;;;10489879;28;20500;-63
2022/10/30 17:26:24;;;;;;;39.63;13.70;;;21.90;65.80;;;;;;10487495;28;20064;-66
2022/10/30 17:31:42;;;;;;;31.20;11.23;;;22.00;64.70;;;;;;10472515;28;20029;-64
2022/10/30 17:36:47;;;;;;;37.13;12.77;;;22.00;65.00;;;;;;10459754;28;20021;-64
2022/10/30 17:41:48;;;;;;;23.98;11.65;;;21.90;64.90;;;;;;10454871;28;20024;-65
2022/10/30 17:46:50;;;;;;;16.00;11.18;;;21.90;64.70;;;;;;10471275;28;20029;-65
2022/10/30 17:51:52;;;;;;;21.48;11.13;;;21.80;64.50;;;;;;10458398;28;20040;-64
2022/10/30 17:56:53;;;;;;;19.23;11.45;;;21.90;64.20;;;;;;10481697;28;20492;-64
2022/10/30 18:01:55;;;;;;;24.30;10.85;;;21.80;64.20;;;;;;10480514;28;20052;-64
2022/10/30 18:06:56;;;;;;;29.30;12.68;;;21.70;64.10;;;;;;10465392;28;20561;-61
2022/10/30 18:11:56;;;;;;;32.42;11.68;;;21.40;66.30;;;;;;10492064;28;20076;-64
2022/10/30 18:16:57;;;;;;;27.63;10.95;;;21.60;65.50;;;;;;10481086;28;20140;-64
2022/10/30 18:21:58;;;;;;;23.27;10.65;;;21.60;65.00;;;;;;10497562;28;20434;-64
2022/10/30 18:26:59;;;;;;;17.80;10.68;;;21.60;65.60;;;;;;10486033;28;20132;-64
2022/10/30 18:31:59;;;;;;;20.05;9.90;;;21.60;64.90;;;;;;10467060;28;20028;-66
2022/10/30 18:37:00;;;;;;;22.15;10.27;;;21.60;64.90;;;;;;10492491;28;20059;-66
2022/10/30 18:42:01;;;;;;;15.30;9.48;;;21.50;65.00;;;;;;10476407;28;20108;-66
2022/10/30 18:47:04;;;;;;;20.25;10.57;;;21.50;64.90;;;;;;10480846;28;20017;-65
2022/10/30 18:52:04;;;;;;;18.40;9.20;;;21.50;64.70;;;;;;10463202;28;20490;-65
2022/10/30 18:57:05;;;;;;;17.10;9.60;;;21.50;65.40;;;;;;10463169;28;20017;-65
2022/10/30 19:02:22;;;;;;;21.83;9.45;;;21.50;65.40;;;;;;10487951;28;20758;-64
2022/10/30 19:07:23;;;;;;;20.52;9.77;;;21.50;65.40;;;;;;10463355;28;20029;-66
2022/10/30 19:12:24;;;;;;;18.90;9.68;;;21.10;66.30;;;;;;10486065;28;20108;-65
2022/10/30 19:17:24;;;;;;;19.02;8.88;;;21.30;65.90;;;;;;10468658;28;20016;-65
2022/10/30 19:22:25;;;;;;;14.07;8.73;;;21.40;65.20;;;;;;10473324;28;20027;-65
2022/10/30 19:27:26;;;;;;;14.45;9.25;;;21.50;64.70;;;;;;10467601;28;20178;-67
2022/10/30 19:32:26;;;;;;;13.45;9.00;;;21.50;64.60;;;;;;10471541;28;20111;-61
2022/10/30 19:37:27;;;;;;;17.88;8.93;;;21.30;66.10;;;;;;10449140;28;20100;-62
2022/10/30 19:42:28;;;;;;;18.60;9.40;;;21.30;65.60;;;;;;10483372;28;20056;-63
2022/10/30 19:47:28;;;;;;;20.25;8.90;;;21.40;64.80;;;;;;10465817;28;20059;-63
2022/10/30 19:52:29;;;;;;;18.08;9.35;;;21.40;65.10;;;;;;10464958;28;20075;-63
2022/10/30 19:57:29;;;;;;;20.50;9.50;;;21.40;65.00;;;;;;10484705;28;20028;-63
2022/10/30 20:02:30;;;;;;;17.65;9.05;;;21.60;61.90;;;;;;10457815;28;20125;-63
2022/10/30 20:07:31;;;;;;;14.13;8.70;;;21.70;60.90;;;;;;10484506;28;20618;-63
2022/10/30 20:12:31;;;;;;;14.50;8.73;;;21.70;60.20;;;;;;10468717;28;20116;-62
2022/10/30 20:17:32;;;;;;;14.07;7.60;;;21.70;59.60;;;;;;10462426;28;20056;-63
2022/10/30 20:22:33;;;;;;;13.38;8.13;;;21.70;59.00;;;;;;10490045;28;20050;-63
2022/10/30 20:27:33;;;;;;;11.52;6.80;;;21.70;58.50;;;;;;10491928;28;20128;-62
2022/10/30 20:32:34;;;;;;;13.88;8.07;;;21.70;58.00;;;;;;10485438;28;20035;-63
2022/10/30 20:37:35;;;;;;;11.38;7.82;;;21.70;57.70;;;;;;10491087;28;20097;-63
2022/10/30 20:42:36;;;;;;;9.13;7.03;;;21.80;57.40;;;;;;10451746;28;20028;-62
2022/10/30 20:47:36;;;;;;;10.95;6.30;;;21.70;57.70;;;;;;10451715;28;20017;-62
2022/10/30 20:52:37;;;;;;;8.73;6.13;;;21.70;56.70;;;;;;10460675;28;20079;-63
2022/10/30 20:57:38;;;;;;;10.40;6.93;;;21.70;56.40;;;;;;10474015;28;20112;-62
2022/10/30 21:02:38;;;;;;;8.32;5.88;;;21.80;56.20;;;;;;10491678;28;20543;-62
2022/10/30 21:07:39;;;;;;;10.02;6.30;;;21.80;55.90;;;;;;10490688;28;20371;-63
2022/10/30 21:12:40;;;;;;;7.85;5.45;;;21.70;55.50;;;;;;10472542;28;20068;-63
2022/10/30 21:17:40;;;;;;;10.30;7.43;;;21.70;55.20;;;;;;10490340;28;20127;-63
2022/10/30 21:22:41;;;;;;;10.18;5.35;;;21.70;55.10;;;;;;10489931;28;20052;-63
2022/10/30 21:27:41;;;;;;;9.30;6.45;;;21.80;54.80;;;;;;10472836;28;20602;-63
2022/10/30 21:32:42;;;;;;;12.20;6.45;;;21.70;54.60;;;;;;10489405;28;20119;-63
2022/10/30 21:37:43;;;;;;;9.68;5.40;;;21.70;54.40;;;;;;10489249;28;20111;-63
2022/10/30 21:42:47;;;;;;;9.65;5.00;;;21.70;54.20;;;;;;10460927;28;20100;-63
2022/10/30 21:47:51;;;;;;;8.57;5.78;;;21.70;54.10;;;;;;10454694;28;20478;-63
2022/10/30 21:52:51;;;;;;;9.43;5.72;;;21.70;53.90;;;;;;10473634;28;20044;-63
2022/10/30 21:57:52;;;;;;;7.45;5.32;;;21.70;53.70;;;;;;10488690;28;20538;-63
2022/10/30 22:02:56;;;;;;;7.47;4.47;;;21.70;53.50;;;;;;10447783;28;20116;-63
2022/10/30 22:07:56;;;;;;;6.90;5.00;;;21.70;53.40;;;;;;10473534;28;20033;-63
2022/10/30 22:12:57;;;;;;;6.93;5.15;;;21.70;53.20;;;;;;10488002;28;20754;-63
2022/10/30 22:17:57;;;;;;;7.28;4.97;;;21.70;53.10;;;;;;10487659;28;20074;-62
2022/10/30 22:22:58;;;;;;;6.00;4.30;;;21.70;53.00;;;;;;10457280;28;20053;-62
2022/10/30 22:27:59;;;;;;;7.07;4.65;;;21.70;52.90;;;;;;10470424;28;20639;-63
2022/10/30 22:32:59;;;;;;;6.50;4.82;;;21.70;52.80;;;;;;10453282;28;20140;-63
2022/10/30 22:38:00;;;;;;;6.85;5.05;;;21.70;52.60;;;;;;10445833;28;20025;-63
2022/10/30 22:43:01;;;;;;;11.40;5.38;;;21.70;52.50;;;;;;10483184;28;20087;-63
2022/10/30 22:48:01;;;;;;;7.85;5.90;;;21.60;52.40;;;;;;10486913;28;20633;-63
2022/10/30 22:53:02;;;;;;;6.90;6.10;;;21.60;52.20;;;;;;10486425;28;20035;-63
2022/10/30 22:58:03;;;;;;;5.95;4.00;;;21.60;52.20;;;;;;10452858;28;20059;-63
2022/10/30 23:03:03;;;;;;;6.65;4.18;;;21.60;51.90;;;;;;10445963;28;20706;-63
2022/10/30 23:08:04;;;;;;;6.22;4.53;;;21.70;51.90;;;;;;10469450;28;20684;-63
2022/10/30 23:13:04;;;;;;;6.57;4.65;;;21.60;51.80;;;;;;10473583;28;20119;-62
2022/10/30 23:18:05;;;;;;;8.13;4.00;;;21.60;51.70;;;;;;10485616;28;20052;-62
2022/10/30 23:23:06;;;;;;;4.68;3.88;;;21.60;51.60;;;;;;10484040;28;20060;-63
2022/10/30 23:28:09;;;;;;;6.15;4.10;;;21.60;51.50;;;;;;10475865;28;20518;-63
2022/10/30 23:33:11;;;;;;;7.28;3.78;;;21.60;51.40;;;;;;10445384;28;20029;-63
2022/10/30 23:38:11;;;;;;;4.82;3.38;;;21.60;51.30;;;;;;10485401;28;20670;-62
2022/10/30 23:43:12;;;;;;;6.05;4.55;;;21.60;51.20;;;;;;10460894;28;20104;-63
2022/10/30 23:48:13;;;;;;;5.47;4.40;;;21.60;51.10;;;;;;10469076;28;20052;-63
2022/10/30 23:53:13;;;;;;;5.38;3.85;;;21.60;51.00;;;;;;10493511;28;20033;-63
2022/10/30 23:58:14;;;;;;;4.28;3.53;;;21.60;51.00;;;;;;10494938;28;20117;-63
